Time;durP1;ratioP1;P1;durP2;ratioP2;P2;SDS_P1;SDS_P2;PMS_P1;PMS_P2;Temp;Humidity;BMP_temperature;BMP_pressure;BME280_temperature;BME280_humidity;BME280_pressure;Samples;Min_cycle;Max_cycle;Signal;HPM_P1;HPM_P2
2022/03/20 00:00:54;;;;;;;12.73;6.37;;;;;;;4.77;28.63;102158.03;4458235;32;32386;-84
2022/03/20 00:03:23;;;;;;;13.15;6.60;;;;;;;4.91;28.11;102158.78;4458366;32;32858;-84
2022/03/20 00:05:52;;;;;;;12.13;6.05;;;;;;;5.25;28.05;102145.37;4457957;32;32321;-84
2022/03/20 00:08:19;;;;;;;11.07;6.50;;;;;;;5.06;28.06;102145.03;4445585;32;33980;-84
2022/03/20 00:10:48;;;;;;;13.80;6.90;;;;;;;5.12;27.80;102156.34;4457726;32;33848;-84
2022/03/20 00:13:18;;;;;;;12.07;6.37;;;;;;;5.20;28.02;102143.00;4458617;32;33308;-83
2022/03/20 00:15:52;;;;;;;14.18;6.15;;;;;;;5.04;28.01;102149.72;4458377;32;33832;-83
2022/03/20 00:18:23;;;;;;;12.25;5.85;;;;;;;5.11;27.80;102156.44;4458504;32;33052;-84
2022/03/20 00:20:59;;;;;;;12.98;5.70;;;;;;;5.32;27.89;102152.09;4471142;32;32221;-84
2022/03/20 00:23:27;;;;;;;11.00;6.15;;;;;;;5.08;27.82;102153.97;4458294;32;32030;-84
2022/03/20 00:25:56;;;;;;;12.35;6.15;;;;;;;4.91;28.21;102153.34;4445215;32;32211;-84
2022/03/20 00:28:24;;;;;;;12.57;6.55;;;;;;;4.93;28.19;102145.06;4458654;32;35108;-84
2022/03/20 00:30:54;;;;;;;12.27;6.45;;;;;;;5.42;27.99;102150.44;4445595;32;32309;-84
2022/03/20 00:33:22;;;;;;;13.38;6.28;;;;;;;5.27;27.84;102155.16;4459119;32;31765;-84
2022/03/20 00:35:50;;;;;;;13.02;6.75;;;;;;;5.17;28.25;102139.66;4460088;32;33746;-80
2022/03/20 00:38:19;;;;;;;10.77;6.37;;;;;;;4.99;28.56;102143.75;4447033;32;33586;-84
2022/03/20 00:40:49;;;;;;;12.15;6.03;;;;;;;5.21;28.10;102143.88;4458701;32;34558;-84
2022/03/20 00:43:16;;;;;;;12.70;6.65;;;;;;;5.35;28.05;102142.84;4458483;32;33932;-84
2022/03/20 00:45:44;;;;;;;13.50;7.10;;;;;;;5.59;27.42;102136.41;4458290;32;34327;-84
2022/03/20 00:48:12;;;;;;;14.38;6.90;;;;;;;5.28;27.69;102146.03;4457938;32;34345;-84
2022/03/20 00:50:42;;;;;;;12.23;6.57;;;;;;;5.47;27.70;102148.22;4458187;32;34134;-83
2022/03/20 00:53:10;;;;;;;14.18;7.07;;;;;;;5.49;27.77;102135.37;4458061;32;34336;-83
2022/03/20 00:55:39;;;;;;;13.48;6.78;;;;;;;5.20;28.33;102147.59;4457881;32;32276;-83
2022/03/20 00:58:06;;;;;;;12.90;6.95;;;;;;;5.09;28.54;102155.69;4457907;32;34569;-83
2022/03/20 01:00:34;;;;;;;11.70;6.68;;;;;;;4.94;28.70;102144.94;4457820;32;33318;-84
2022/03/20 01:03:02;;;;;;;14.18;6.47;;;;;;;5.11;28.56;102143.72;4445134;32;32991;-83
2022/03/20 01:05:31;;;;;;;11.82;6.78;;;;;;;4.92;28.61;102141.47;4457865;32;33223;-83
2022/03/20 01:08:01;;;;;;;13.50;7.20;;;;;;;4.77;28.91;102136.28;4458398;32;34244;-83
2022/03/20 01:10:36;;;;;;;12.65;6.85;;;;;;;5.17;28.61;102128.78;4430445;32;32527;-84
2022/03/20 01:13:04;;;;;;;11.93;6.78;;;;;;;5.05;28.53;102126.97;4455106;32;33411;-83
2022/03/20 01:15:31;;;;;;;13.55;6.80;;;;;;;5.24;28.64;102133.62;4442176;32;33626;-83
2022/03/20 01:17:59;;;;;;;11.30;6.12;;;;;;;5.29;28.30;102131.41;4442071;32;32938;-83
2022/03/20 01:20:27;;;;;;;13.48;6.75;;;;;;;4.83;29.13;102144.88;4441785;32;32334;-83
2022/03/20 01:22:55;;;;;;;16.80;7.07;;;;;;;5.00;28.85;102140.03;4442730;32;31823;-83
2022/03/20 01:25:22;;;;;;;12.40;7.22;;;;;;;5.29;28.27;102136.00;4431526;32;32639;-84
2022/03/20 01:27:50;;;;;;;15.38;7.05;;;;;;;4.85;28.66;102142.91;4431341;32;32851;-84
2022/03/20 01:30:18;;;;;;;14.85;7.78;;;;;;;5.14;29.00;102146.22;4456595;32;32535;-84
2022/03/20 01:32:45;;;;;;;14.35;7.15;;;;;;;5.13;28.87;102146.31;4431411;32;33294;-84
2022/03/20 01:35:13;;;;;;;15.02;6.60;;;;;;;5.11;29.13;102149.16;4456965;32;33622;-84
2022/03/20 01:37:41;;;;;;;13.65;6.75;;;;;;;5.11;28.98;102151.87;4431366;32;32820;-83
2022/03/20 01:40:15;;;;;;;16.98;7.12;;;;;;;5.04;29.15;102145.16;4444024;32;32540;-83
2022/03/20 01:42:43;;;;;;;13.85;6.53;;;;;;;4.76;29.73;102165.34;4431598;32;32799;-83
2022/03/20 01:45:16;;;;;;;14.48;7.03;;;;;;;4.93;29.19;102173.16;4431465;32;32160;-83
2022/03/20 01:47:47;;;;;;;16.92;7.70;;;;;;;4.68;29.81;102166.84;4457272;32;34694;-84
2022/03/20 01:50:16;;;;;;;15.38;7.43;;;;;;;4.75;29.79;102169.03;4456490;32;32391;-84
2022/03/20 01:52:45;;;;;;;13.82;7.40;;;;;;;4.86;29.34;102171.84;4457280;32;33318;-84
2022/03/20 01:55:15;;;;;;;12.13;6.87;;;;;;;4.78;29.88;102168.81;4443815;32;32687;-84
2022/03/20 01:57:44;;;;;;;13.68;7.03;;;;;;;4.54;29.79;102176.03;4444154;32;35129;-84
2022/03/20 02:00:14;;;;;;;16.48;6.97;;;;;;;4.38;30.47;102178.09;4444343;32;34887;-84
2022/03/20 02:02:42;;;;;;;12.75;6.65;;;;;;;4.59;30.07;102179.25;4456663;32;31776;-83
2022/03/20 02:05:12;;;;;;;13.43;6.78;;;;;;;4.48;30.48;102173.75;4444162;32;33869;-84
2022/03/20 02:07:40;;;;;;;13.10;6.65;;;;;;;4.48;30.14;102180.06;4443915;32;33862;-83
2022/03/20 02:10:11;;;;;;;13.85;6.87;;;;;;;3.99;30.91;102185.31;4456923;32;33923;-83
2022/03/20 02:12:42;;;;;;;14.32;6.72;;;;;;;4.50;30.54;102179.94;4459317;32;31912;-83
2022/03/20 02:15:15;;;;;;;12.05;6.12;;;;;;;4.24;30.82;102189.94;4472946;32;33595;-83
2022/03/20 02:17:43;;;;;;;12.65;6.62;;;;;;;4.14;31.12;102189.69;4459604;32;34433;-84
2022/03/20 02:20:12;;;;;;;13.25;6.07;;;;;;;4.45;30.63;102184.84;4472377;32;32461;-83
2022/03/20 02:22:43;;;;;;;17.15;7.37;;;;;;;4.52;30.56;102186.16;4459934;32;31691;-83
2022/03/20 02:25:14;;;;;;;13.62;7.12;;;;;;;4.27;30.92;102189.72;4460218;32;32230;-83
2022/03/20 02:27:44;;;;;;;14.07;6.53;;;;;;;4.04;31.24;102194.03;4459348;32;33000;-84
2022/03/20 02:30:18;;;;;;;12.88;6.45;;;;;;;4.21;30.95;102187.44;4448134;32;32163;-83
2022/03/20 02:32:48;;;;;;;15.18;6.70;;;;;;;4.18;31.25;102185.78;4461587;32;33574;-83
2022/03/20 02:35:17;;;;;;;12.48;7.07;;;;;;;4.39;30.98;102188.00;4459201;32;34376;-83
2022/03/20 02:37:50;;;;;;;13.48;6.75;;;;;;;4.28;31.00;102180.59;4461104;32;32940;-83
2022/03/20 02:40:21;;;;;;;14.02;7.18;;;;;;;4.04;31.62;102188.59;4460767;32;33676;-84
2022/03/20 02:42:54;;;;;;;13.23;6.97;;;;;;;3.95;31.69;102186.50;4459137;32;33303;-83
2022/03/20 02:45:33;;;;;;;12.23;6.70;;;;;;;3.70;32.17;102194.59;4459369;32;34121;-83
2022/03/20 02:48:04;;;;;;;13.15;7.03;;;;;;;3.85;32.30;102188.12;4447236;32;34185;-83
2022/03/20 02:50:34;;;;;;;14.48;7.10;;;;;;;3.69;32.25;102188.31;4459499;32;33849;-83
2022/03/20 02:55:53;;;;;;;11.70;6.20;;;;;;;3.59;32.85;102188.03;4471660;32;32367;-83
2022/03/20 02:58:25;;;;;;;15.32;7.35;;;;;;;3.62;32.84;102203.25;4459334;32;32899;-84
2022/03/20 03:00:55;;;;;;;13.32;7.32;;;;;;;3.80;32.46;102207.47;4459672;32;33895;-83
2022/03/20 03:03:25;;;;;;;12.85;6.95;;;;;;;3.70;32.50;102206.34;4459302;32;31650;-83
2022/03/20 03:05:56;;;;;;;12.40;6.90;;;;;;;3.83;32.67;102214.53;4446339;32;32178;-83
2022/03/20 03:11:13;;;;;;;17.40;7.65;;;;;;;3.91;32.51;102225.72;4460596;32;33872;-83
2022/03/20 03:13:41;;;;;;;15.10;7.57;;;;;;;3.69;33.05;102217.31;4458590;32;33376;-83
2022/03/20 03:16:11;;;;;;;13.82;7.12;;;;;;;3.94;32.55;102230.94;4458916;32;31836;-83
2022/03/20 03:18:41;;;;;;;16.90;7.62;;;;;;;3.95;32.31;102233.56;4458690;32;32818;-83
2022/03/20 03:21:14;;;;;;;14.80;7.80;;;;;;;4.07;32.24;102220.13;4459035;32;34066;-83
2022/03/20 03:23:44;;;;;;;14.77;7.90;;;;;;;4.09;32.51;102231.75;4458788;32;33371;-83
2022/03/20 03:26:13;;;;;;;14.43;7.95;;;;;;;4.06;32.64;102243.69;4446123;32;32952;-83
2022/03/20 03:28:41;;;;;;;14.98;7.78;;;;;;;4.02;32.89;102242.16;4458725;32;33033;-83
2022/03/20 03:31:10;;;;;;;14.50;7.82;;;;;;;3.96;32.82;102253.44;4458632;32;33521;-83
2022/03/20 03:35:41;;;;;;;14.60;8.20;;;;;;;4.16;32.67;102255.69;4458934;32;31688;-83
2022/03/20 03:36:30;;;;;;;18.17;8.35;;;;;;;4.16;32.72;102258.41;4471551;32;32289;-83
2022/03/20 03:38:58;;;;;;;14.18;7.57;;;;;;;4.24;32.54;102263.31;4459081;32;35320;-83
2022/03/20 03:41:26;;;;;;;14.73;8.18;;;;;;;4.28;32.64;102257.56;4458957;32;34256;-83
2022/03/20 03:43:56;;;;;;;13.23;7.82;;;;;;;4.16;32.68;102271.13;4458671;32;32682;-83
2022/03/20 03:46:25;;;;;;;15.82;8.15;;;;;;;4.15;32.87;102272.09;4446043;32;33255;-84
2022/03/20 03:48:54;;;;;;;16.50;8.20;;;;;;;4.08;33.00;102270.78;4446065;32;33009;-83
2022/03/20 03:51:25;;;;;;;15.93;8.57;;;;;;;3.93;33.49;102273.53;4458404;32;32657;-83
2022/03/20 03:53:53;;;;;;;18.17;9.05;;;;;;;4.08;33.29;102281.63;4458864;32;32981;-83
2022/03/20 03:56:20;;;;;;;16.05;8.52;;;;;;;3.98;33.37;102279.53;4458608;32;32199;-83
2022/03/20 03:58:48;;;;;;;15.07;8.25;;;;;;;3.95;33.45;102281.59;4458655;32;35334;-83
2022/03/20 04:01:16;;;;;;;13.80;8.50;;;;;;;4.01;33.39;102283.91;4458962;32;33939;-83
2022/03/20 04:03:44;;;;;;;15.52;8.30;;;;;;;3.95;33.73;102287.91;4460201;32;33281;-83
2022/03/20 04:06:12;;;;;;;15.77;8.63;;;;;;;3.98;33.55;102290.41;4461657;32;34446;-83
2022/03/20 04:08:40;;;;;;;16.33;8.55;;;;;;;3.82;34.10;102291.56;4458601;32;33080;-83
2022/03/20 04:11:09;;;;;;;16.83;8.27;;;;;;;3.78;34.14;102303.59;4472992;32;34044;-82
2022/03/20 04:13:37;;;;;;;16.30;8.40;;;;;;;3.78;34.35;102299.03;4460977;32;33610;-83
2022/03/20 04:16:07;;;;;;;16.33;8.45;;;;;;;3.91;34.22;102301.78;4458693;32;33218;-83
2022/03/20 04:18:36;;;;;;;14.93;8.88;;;;;;;3.83;34.50;102302.31;4460301;32;34263;-82
2022/03/20 04:21:04;;;;;;;20.30;8.75;;;;;;;3.80;34.35;102302.53;4461082;32;33064;-83
2022/03/20 04:23:49;;;;;;;19.35;9.80;;;;;;;3.86;34.25;102303.97;4458228;32;31882;-83
2022/03/20 04:26:20;;;;;;;18.85;9.30;;;;;;;3.59;34.92;102309.34;4447312;32;32245;-82
2022/03/20 04:28:49;;;;;;;15.07;8.38;;;;;;;3.47;35.04;102313.75;4458339;32;32905;-83
2022/03/20 04:31:18;;;;;;;16.17;8.80;;;;;;;3.53;35.04;102304.31;4470855;32;32622;-83
2022/03/20 04:33:48;;;;;;;14.68;7.85;;;;;;;3.51;35.04;102320.72;4458341;32;33444;-83
2022/03/20 04:36:17;;;;;;;19.27;9.57;;;;;;;3.53;35.21;102326.03;4458558;32;34475;-83
2022/03/20 04:38:45;;;;;;;19.35;8.77;;;;;;;3.72;35.03;102325.72;4458156;32;33023;-84
2022/03/20 04:41:13;;;;;;;17.45;8.95;;;;;;;3.53;35.13;102329.62;4458499;32;33880;-83
2022/03/20 04:43:44;;;;;;;17.52;8.77;;;;;;;3.49;35.36;102330.81;4445465;32;31946;-83
2022/03/20 04:46:12;;;;;;;14.85;8.23;;;;;;;3.41;35.32;102335.84;4471039;32;33743;-83
2022/03/20 04:59:50;;;;;;;16.77;9.23;;;;;;;3.17;36.34;102353.72;4474935;32;34269;-85
2022/03/20 05:02:18;;;;;;;17.45;8.93;;;;;;;3.28;36.15;102362.88;4460055;32;33934;-86
2022/03/20 05:04:46;;;;;;;19.95;9.15;;;;;;;3.23;36.24;102356.03;4459852;32;34203;-85
2022/03/20 05:07:13;;;;;;;17.50;9.32;;;;;;;3.29;36.31;102358.34;4459924;32;34357;-85
2022/03/20 05:15:14;;;;;;;18.25;9.13;;;;;;;3.11;37.00;102365.81;4461747;32;32930;-86
2022/03/20 05:17:42;;;;;;;19.85;10.10;;;;;;;3.08;37.00;102368.72;4460147;32;33803;-85
2022/03/20 05:20:11;;;;;;;19.58;9.15;;;;;;;3.17;36.88;102365.44;4459937;32;35296;-85
2022/03/20 05:22:39;;;;;;;19.37;9.27;;;;;;;3.24;36.95;102371.34;4459615;32;32431;-84
2022/03/20 05:25:12;;;;;;;21.95;9.80;;;;;;;3.19;36.89;102382.50;4459845;32;33456;-85
2022/03/20 05:27:43;;;;;;;17.42;9.15;;;;;;;3.27;37.01;102379.28;4460256;32;33094;-84
2022/03/20 05:30:11;;;;;;;17.62;9.32;;;;;;;3.08;37.63;102386.84;4459389;32;32851;-85
2022/03/20 05:32:38;;;;;;;20.17;9.75;;;;;;;3.10;37.53;102398.47;4459681;32;32374;-85
2022/03/20 05:35:08;;;;;;;17.10;9.40;;;;;;;3.15;37.48;102393.63;4459759;32;31781;-85
2022/03/20 05:37:36;;;;;;;19.20;9.60;;;;;;;3.38;36.92;102393.03;4459783;32;33944;-85
2022/03/20 05:40:05;;;;;;;18.10;9.48;;;;;;;3.43;36.80;102388.19;4460025;32;34622;-85
2022/03/20 05:42:35;;;;;;;17.30;9.77;;;;;;;3.40;36.83;102391.09;4459517;32;32445;-86
2022/03/20 05:45:03;;;;;;;21.42;10.73;;;;;;;3.28;37.41;102398.16;4459388;32;32610;-85
2022/03/20 05:47:32;;;;;;;18.62;10.25;;;;;;;3.53;36.97;102400.22;4459645;32;33920;-85
2022/03/20 05:50:03;;;;;;;20.95;10.15;;;;;;;3.68;36.88;102397.50;4459650;32;34259;-86
2022/03/20 05:52:31;;;;;;;18.27;9.77;;;;;;;3.50;37.35;102402.25;4459681;32;33685;-86
2022/03/20 05:55:00;;;;;;;17.75;10.27;;;;;;;3.63;37.10;102406.81;4459626;32;32072;-85
2022/03/20 06:00:29;;;;;;;23.67;11.90;;;;;;;4.03;36.59;102397.91;4475792;32;34608;-83
2022/03/20 06:02:57;;;;;;;19.73;11.57;;;;;;;4.08;36.99;102404.78;4474298;32;35061;-83
2022/03/20 06:05:28;;;;;;;22.70;12.45;;;;;;;3.91;37.24;102402.31;4460037;32;33028;-82
2022/03/20 06:07:56;;;;;;;21.37;12.45;;;;;;;4.29;36.79;102411.53;4448010;32;32126;-82
2022/03/20 06:10:24;;;;;;;20.70;12.65;;;;;;;4.49;36.67;102414.78;4460693;32;35377;-82
2022/03/20 06:12:52;;;;;;;20.15;12.00;;;;;;;4.56;36.71;102418.81;4459592;32;33821;-82
2022/03/20 06:15:19;;;;;;;22.85;13.95;;;;;;;4.66;36.70;102425.38;4460077;32;33242;-82
2022/03/20 06:17:47;;;;;;;23.87;13.35;;;;;;;4.82;36.08;102436.06;4487173;32;33708;-82
2022/03/20 06:20:18;;;;;;;25.48;13.85;;;;;;;4.78;36.26;102427.25;4472147;32;34026;-82
2022/03/20 06:22:49;;;;;;;21.05;11.05;;;;;;;5.14;35.88;102442.03;4446387;32;32451;-81
2022/03/20 06:25:17;;;;;;;16.48;9.90;;;;;;;5.13;35.34;102445.75;4472490;32;33416;-82
2022/03/20 06:27:48;;;;;;;17.02;9.45;;;;;;;5.33;34.76;102441.59;4459305;32;32199;-82
2022/03/20 06:30:17;;;;;;;14.77;9.25;;;;;;;5.44;33.76;102445.31;4459275;32;35289;-83
2022/03/20 06:32:49;;;;;;;16.83;8.57;;;;;;;5.53;33.67;102450.13;4459425;32;33938;-82
2022/03/20 06:35:20;;;;;;;17.02;8.88;;;;;;;5.77;32.74;102446.63;4459638;32;33270;-82
2022/03/20 06:37:53;;;;;;;18.37;9.70;;;;;;;5.95;32.27;102446.16;4459248;32;32581;-82
2022/03/20 06:40:22;;;;;;;15.88;9.23;;;;;;;6.41;32.14;102441.91;4472790;32;34265;-82
2022/03/20 06:42:49;;;;;;;15.40;8.93;;;;;;;6.65;32.08;102450.97;4471909;32;32405;-83
2022/03/20 06:45:20;;;;;;;18.83;11.90;;;;;;;6.91;31.43;102460.75;4446325;32;31875;-83
2022/03/20 06:47:50;;;;;;;33.30;20.08;;;;;;;7.20;30.86;102463.09;4459481;32;33170;-83
2022/03/20 06:50:21;;;;;;;16.05;9.57;;;;;;;7.09;30.96;102463.06;4472117;32;34051;-83
2022/03/20 06:52:52;;;;;;;17.67;9.70;;;;;;;6.97;30.14;102456.69;4459271;32;34507;-83
2022/03/20 06:55:26;;;;;;;18.17;9.32;;;;;;;6.92;30.76;102467.97;4459640;32;31733;-82
2022/03/20 06:57:54;;;;;;;17.67;8.68;;;;;;;6.53;31.08;102468.25;4459394;32;33894;-82
2022/03/20 07:00:31;;;;;;;13.88;8.52;;;;;;;7.16;30.63;102465.19;4472137;32;35085;-82
2022/03/20 07:03:06;;;;;;;17.08;9.32;;;;;;;7.48;29.42;102461.81;4459458;32;33232;-83
2022/03/20 07:05:35;;;;;;;15.73;8.43;;;;;;;7.78;29.57;102470.31;4459936;32;33300;-82
2022/03/20 07:08:04;;;;;;;14.50;8.05;;;;;;;7.79;28.92;102469.31;4457833;32;34350;-83
2022/03/20 07:10:35;;;;;;;16.52;9.77;;;;;;;8.15;28.58;102470.91;4459132;32;35151;-82
2022/03/20 07:15:57;;;;;;;35.00;21.27;;;;;;;8.45;28.26;102480.38;4460954;32;31782;-83
2022/03/20 07:18:28;;;;;;;29.27;16.92;;;;;;;8.53;28.30;102483.31;4459580;32;33819;-83
2022/03/20 07:20:58;;;;;;;31.58;17.37;;;;;;;8.05;28.39;102482.72;4458549;32;32920;-82
2022/03/20 07:23:31;;;;;;;20.08;10.60;;;;;;;8.39;27.94;102486.34;4460167;32;34026;-82
2022/03/20 07:31:43;;;;;;;13.57;8.15;;;;;;;8.89;27.83;102495.81;4460772;32;32977;-83
2022/03/20 07:34:14;;;;;;;21.02;10.27;;;;;;;8.96;27.30;102491.53;4459052;32;32045;-83
2022/03/20 07:36:45;;;;;;;16.90;8.93;;;;;;;8.86;27.50;102496.94;4458679;32;32292;-82
2022/03/20 07:39:21;;;;;;;20.02;8.98;;;;;;;8.71;27.85;102500.94;4458007;32;34571;-82
2022/03/20 07:42:04;;;;;;;15.57;9.43;;;;;;;9.01;27.73;102500.25;4458760;32;34434;-83
2022/03/20 07:44:39;;;;;;;13.68;8.25;;;;;;;8.80;27.49;102497.44;4459107;32;33055;-81
2022/03/20 07:47:17;;;;;;;13.82;8.05;;;;;;;9.03;27.38;102487.28;4471476;32;33102;-83
2022/03/20 07:49:53;;;;;;;13.02;7.18;;;;;;;9.23;27.18;102489.16;4473151;32;34417;-82
2022/03/20 07:52:26;;;;;;;27.05;14.45;;;;;;;9.60;26.61;102490.59;4457786;32;32954;-82
2022/03/20 07:55:01;;;;;;;17.95;8.82;;;;;;;9.94;26.58;102482.97;4455779;32;34446;-83
2022/03/20 07:57:32;;;;;;;14.77;8.70;;;;;;;10.07;26.92;102495.47;4464865;32;32350;-81
2022/03/20 08:00:08;;;;;;;18.77;9.55;;;;;;;10.46;25.82;102484.66;4462837;31;33750;-82
2022/03/20 08:02:50;;;;;;;16.73;8.68;;;;;;;10.34;25.76;102481.19;4462093;32;33270;-82
2022/03/20 08:05:24;;;;;;;17.33;8.30;;;;;;;10.50;24.81;102486.12;4463450;32;32381;-82
2022/03/20 08:08:03;;;;;;;16.98;9.18;;;;;;;10.51;24.80;102494.22;4468805;32;33340;-83
2022/03/20 08:10:44;;;;;;;13.75;7.93;;;;;;;10.46;25.22;102484.66;4471466;32;34789;-87
2022/03/20 08:13:18;;;;;;;16.85;8.57;;;;;;;10.64;25.45;102490.34;4471059;32;33317;-85
2022/03/20 08:15:52;;;;;;;15.38;8.27;;;;;;;10.55;25.64;102494.81;4471257;32;33894;-85
2022/03/20 08:18:29;;;;;;;11.93;7.40;;;;;;;10.41;25.31;102493.31;4451199;32;31947;-89
2022/03/20 08:21:09;;;;;;;16.02;8.68;;;;;;;10.61;25.95;102493.38;4458870;32;32320;-91
2022/03/20 08:23:43;;;;;;;13.25;7.95;;;;;;;10.89;25.39;102482.44;4471713;32;33937;-87
2022/03/20 08:26:11;;;;;;;15.52;7.87;;;;;;;10.84;24.60;102484.75;4470613;32;34307;-80
2022/03/20 08:28:41;;;;;;;16.02;7.68;;;;;;;10.87;24.06;102491.84;4482573;32;33757;-80
2022/03/20 08:31:09;;;;;;;13.20;8.30;;;;;;;10.93;25.01;102484.91;4483976;32;33880;-81
2022/03/20 08:33:40;;;;;;;17.33;7.55;;;;;;;11.09;25.39;102475.06;4453109;32;33378;-80
2022/03/20 08:36:12;;;;;;;14.57;7.28;;;;;;;11.50;24.97;102468.38;4457905;32;32089;-81
2022/03/20 08:38:46;;;;;;;11.90;6.70;;;;;;;11.69;24.12;102463.87;4469077;32;33524;-81
2022/03/20 08:41:14;;;;;;;15.68;6.62;;;;;;;11.62;23.58;102465.47;4468732;32;33500;-81
2022/03/20 08:43:42;;;;;;;14.87;7.22;;;;;;;11.58;22.49;102477.78;4469140;32;33031;-81
2022/03/20 08:46:10;;;;;;;11.05;6.43;;;;;;;11.37;23.12;102478.81;4469182;32;32397;-81
2022/03/20 08:48:39;;;;;;;11.07;7.05;;;;;;;11.35;22.98;102480.84;4469675;32;32746;-81
2022/03/20 08:51:06;;;;;;;11.65;6.82;;;;;;;11.77;23.12;102472.25;4469922;32;33433;-78
2022/03/20 08:53:35;;;;;;;13.55;7.62;;;;;;;11.83;22.68;102482.66;4470068;32;33882;-77
2022/03/20 08:56:03;;;;;;;11.15;6.53;;;;;;;11.71;22.64;102478.31;4458435;32;32434;-78
2022/03/20 08:58:31;;;;;;;11.40;6.50;;;;;;;12.04;22.00;102475.06;4470689;32;31486;-78
2022/03/20 09:00:59;;;;;;;13.00;6.80;;;;;;;12.02;21.93;102477.09;4470282;32;33290;-78
2022/03/20 09:03:27;;;;;;;12.10;6.43;;;;;;;12.16;22.41;102484.00;4483285;32;34509;-78
2022/03/20 09:05:55;;;;;;;10.38;6.25;;;;;;;12.17;22.11;102483.84;4483054;32;33876;-78
2022/03/20 09:08:25;;;;;;;13.13;6.12;;;;;;;12.02;22.08;102470.72;4457984;32;31840;-78
2022/03/20 09:10:52;;;;;;;10.80;6.28;;;;;;;12.28;21.99;102462.66;4470270;32;33159;-78
2022/03/20 09:13:20;;;;;;;14.30;8.35;;;;;;;12.00;22.04;102472.75;4483330;32;34670;-77
2022/03/20 09:18:59;;;;;;;33.17;18.10;;;;;;;12.17;22.63;102470.09;4469941;32;32539;-78
2022/03/20 09:21:22;;;;;;;25.12;14.50;;;;;;;12.16;22.36;102464.75;4472220;32;32495;-79
2022/03/20 09:23:49;;;;;;;25.35;15.02;;;;;;;12.18;22.32;102460.81;4470289;32;33007;-78
2022/03/20 09:26:17;;;;;;;11.50;6.47;;;;;;;12.41;22.04;102457.63;4470189;32;33929;-79
2022/03/20 09:28:46;;;;;;;11.68;7.50;;;;;;;12.59;21.38;102453.03;4470073;32;31841;-78
2022/03/20 09:31:15;;;;;;;10.80;6.28;;;;;;;12.74;21.03;102447.88;4484696;32;33788;-79
2022/03/20 09:33:43;;;;;;;15.95;6.95;;;;;;;12.95;20.62;102440.16;4470206;32;32959;-79
2022/03/20 09:36:11;;;;;;;11.05;6.55;;;;;;;12.96;21.48;102446.53;4483156;32;34761;-79
2022/03/20 09:38:39;;;;;;;11.80;6.35;;;;;;;13.18;21.41;102448.84;4470296;32;33955;-79
2022/03/20 09:41:09;;;;;;;10.15;6.22;;;;;;;13.21;20.71;102445.75;4470225;32;32428;-79
2022/03/20 09:43:39;;;;;;;16.08;7.62;;;;;;;12.68;21.13;102438.34;4483886;32;34575;-79
2022/03/20 09:46:15;;;;;;;13.57;6.55;;;;;;;12.99;20.90;102443.47;4473148;32;33308;-79
2022/03/20 09:48:44;;;;;;;9.65;5.75;;;;;;;13.20;20.83;102435.75;4472472;32;31783;-79
2022/03/20 09:51:12;;;;;;;10.55;6.43;;;;;;;13.19;21.19;102453.31;4472433;32;33934;-80
2022/03/20 09:53:40;;;;;;;10.30;5.85;;;;;;;13.40;20.70;102450.22;4459593;32;34032;-79
2022/03/20 09:56:11;;;;;;;12.98;8.05;;;;;;;13.43;19.80;102449.91;4472213;32;33617;-80
2022/03/20 09:58:39;;;;;;;11.12;6.12;;;;;;;13.44;19.77;102446.13;4482936;32;33336;-79
2022/03/20 10:01:08;;;;;;;13.20;6.40;;;;;;;13.34;20.95;102445.34;4480577;31;33849;-79
2022/03/20 10:03:37;;;;;;;11.93;6.03;;;;;;;13.69;19.82;102436.97;4479278;32;35253;-79
2022/03/20 10:06:16;;;;;;;10.45;6.43;;;;;;;13.56;19.60;102442.09;4456801;32;33965;-80
2022/03/20 10:09:02;;;;;;;11.40;6.53;;;;;;;13.27;19.90;102435.97;4471040;32;32071;-80
2022/03/20 10:11:30;;;;;;;11.20;6.25;;;;;;;13.75;19.68;102439.09;4472498;32;31981;-79
2022/03/20 10:14:04;;;;;;;10.68;6.12;;;;;;;14.44;19.79;102427.03;4472415;32;35227;-79
2022/03/20 10:16:32;;;;;;;10.48;5.95;;;;;;;14.39;18.91;102423.88;4485514;32;34572;-80
2022/03/20 10:19:00;;;;;;;12.15;6.18;;;;;;;14.14;18.88;102424.81;4472462;32;31892;-80
2022/03/20 10:21:45;;;;;;;10.50;5.97;;;;;;;14.59;19.16;102423.63;4459434;32;32288;-80
2022/03/20 10:24:16;;;;;;;10.13;6.05;;;;;;;14.89;19.16;102420.22;4485220;32;35031;-80
2022/03/20 10:26:44;;;;;;;10.07;6.30;;;;;;;14.99;18.70;102429.19;4459354;32;32283;-80
2022/03/20 10:29:18;;;;;;;10.05;6.30;;;;;;;14.86;18.60;102416.94;4485323;32;33281;-80
2022/03/20 10:31:52;;;;;;;9.77;5.40;;;;;;;14.81;18.49;102432.16;4459706;32;32535;-80
2022/03/20 10:34:21;;;;;;;12.82;7.07;;;;;;;14.79;18.63;102425.91;4472147;32;34105;-80
2022/03/20 10:36:50;;;;;;;12.05;6.57;;;;;;;15.05;18.89;102417.47;4485182;32;33890;-81
2022/03/20 10:39:20;;;;;;;15.57;8.15;;;;;;;15.21;18.47;102412.97;4472181;32;31682;-81
2022/03/20 10:41:49;;;;;;;10.52;6.72;;;;;;;14.94;18.60;102409.53;4472298;32;33565;-81
2022/03/20 10:44:31;;;;;;;11.30;7.00;;;;;;;14.80;18.95;102416.59;4462231;32;33152;-80
2022/03/20 10:47:10;;;;;;;10.45;6.30;;;;;;;15.01;18.57;102417.97;4460118;32;32181;-80
2022/03/20 10:50:00;;;;;;;12.25;7.20;;;;;;;14.77;18.51;102416.94;4485251;32;33558;-80
2022/03/20 10:52:32;;;;;;;11.30;6.60;;;;;;;15.22;17.94;102409.16;4472046;32;33123;-80
2022/03/20 10:55:06;;;;;;;11.27;6.75;;;;;;;15.37;18.20;102402.78;4484342;32;34474;-80
2022/03/20 10:57:34;;;;;;;11.55;6.28;;;;;;;15.81;17.33;102388.50;4485007;32;33843;-80
2022/03/20 11:00:10;;;;;;;10.95;6.97;;;;;;;15.77;17.59;102392.69;4456393;32;117906;-80
2022/03/20 11:02:39;;;;;;;;;;;;;;;15.94;17.49;102383.28;4472553;32;33375;-80
2022/03/20 11:05:08;;;;;;;10.38;6.32;;;;;;;16.06;17.18;102384.62;4482858;31;34821;-80
2022/03/20 11:07:36;;;;;;;12.82;8.38;;;;;;;15.84;17.31;102384.53;4485476;31;34728;-80
2022/03/20 11:10:14;;;;;;;20.75;13.77;;;;;;;15.89;16.89;102379.31;4484313;32;33944;-80
2022/03/20 11:12:43;;;;;;;22.70;14.93;;;;;;;15.52;17.23;102377.16;4472661;32;34695;-80
2022/03/20 11:15:12;;;;;;;26.85;16.65;;;;;;;15.39;17.41;102377.69;4459082;32;32741;-80
2022/03/20 11:17:45;;;;;;;16.83;9.95;;;;;;;15.61;17.55;102371.44;4471752;32;33479;-80
2022/03/20 11:20:14;;;;;;;16.02;13.77;;;;;;;15.70;17.11;102375.03;4458875;32;31739;-80
2022/03/20 11:22:50;;;;;;;11.98;7.47;;;;;;;15.90;17.17;102367.19;4471777;32;32332;-80
2022/03/20 11:25:25;;;;;;;11.40;6.60;;;;;;;15.83;17.36;102353.19;4471828;32;34448;-80
2022/03/20 11:28:03;;;;;;;13.10;6.68;;;;;;;15.26;17.53;102366.28;4484948;32;33849;-80
2022/03/20 11:30:33;;;;;;;9.82;6.60;;;;;;;15.31;17.92;102358.31;4471790;32;31787;-80
2022/03/20 11:33:01;;;;;;;12.18;7.45;;;;;;;14.35;18.44;102361.69;4471441;32;32289;-79
2022/03/20 11:35:34;;;;;;;11.70;7.32;;;;;;;14.87;18.16;102350.41;4484555;32;34400;-80
2022/03/20 11:38:19;;;;;;;12.52;7.65;;;;;;;14.89;18.09;102355.78;4471460;32;32482;-79
2022/03/20 11:41:13;;;;;;;9.93;6.10;;;;;;;15.02;18.05;102339.50;4484305;32;33531;-80
2022/03/20 11:43:47;;;;;;;9.45;5.70;;;;;;;15.17;16.97;102337.75;4484346;32;33662;-79
2022/03/20 11:46:30;;;;;;;18.80;10.85;;;;;;;15.54;16.98;102330.78;4484519;32;34571;-77
2022/03/20 11:49:13;;;;;;;14.48;7.18;;;;;;;15.48;20.92;102326.81;4472740;32;33934;-81
2022/03/20 11:51:59;;;;;;;10.52;6.70;;;;;;;15.22;18.15;102312.34;4484615;32;33893;-82
2022/03/20 11:54:39;;;;;;;12.20;7.55;;;;;;;15.15;17.78;102317.72;4471827;32;33509;-81
2022/03/20 11:57:25;;;;;;;10.32;6.65;;;;;;;14.52;18.32;102329.47;4484607;32;34430;-81
2022/03/20 12:00:18;;;;;;;12.85;7.40;;;;;;;14.41;18.76;102314.06;4464657;31;33481;-81
2022/03/20 12:02:50;;;;;;;16.85;7.57;;;;;;;14.26;18.43;102312.13;4476701;32;34291;-80
2022/03/20 12:05:20;;;;;;;13.13;6.10;;;;;;;13.77;18.10;102311.97;4465306;32;33655;-80
2022/03/20 12:08:22;;;;;;;8.90;5.85;;;;;;;13.86;18.01;102302.69;4463426;32;32878;-80
2022/03/20 12:10:50;;;;;;;10.80;6.03;;;;;;;14.44;18.27;102308.22;4465746;32;33378;-81
2022/03/20 12:13:31;;;;;;;9.13;5.50;;;;;;;14.31;20.00;102302.28;4462806;32;31834;-81
2022/03/20 12:16:02;;;;;;;12.23;6.78;;;;;;;14.27;20.34;102303.69;4465184;32;34505;-80